createdAt,value
2022-09-01T00:00:01.075Z,98788.00
2022-09-01T00:00:08.533Z,98788.00
2022-09-01T00:00:16.604Z,98792.00
2022-09-01T00:00:27.515Z,98788.00
2022-09-01T00:00:38.534Z,98786.00
2022-09-01T00:00:48.584Z,98790.00
2022-09-01T00:00:58.524Z,98786.00
2022-09-01T00:01:06.583Z,98786.00
2022-09-01T00:01:18.533Z,98790.00
2022-09-01T00:01:28.525Z,98786.00
2022-09-01T00:01:36.676Z,98786.00
2022-09-01T00:01:48.525Z,98788.00
2022-09-01T00:01:58.528Z,98786.00
2022-09-01T00:02:08.581Z,98786.00
2022-09-01T00:02:16.632Z,98786.00
2022-09-01T00:02:27.626Z,98786.00
2022-09-01T00:02:36.604Z,98784.00
2022-09-01T00:02:46.597Z,98784.00
2022-09-01T00:02:56.636Z,98784.00
2022-09-01T00:03:06.576Z,98784.00
2022-09-01T00:03:18.538Z,98784.00
2022-09-01T00:03:27.475Z,98786.00
2022-09-01T00:03:36.555Z,98786.00
2022-09-01T00:03:46.567Z,98784.00
2022-09-01T00:03:58.552Z,98786.00
2022-09-01T00:04:07.460Z,98784.00
2022-09-01T00:04:18.542Z,98786.00
2022-09-01T00:04:28.672Z,98783.00
2022-09-01T00:04:36.620Z,98786.00
2022-09-01T00:04:47.446Z,98784.00
2022-09-01T00:04:56.565Z,98788.00
2022-09-01T00:05:06.765Z,98786.00
2022-09-01T00:05:18.494Z,98786.00
2022-09-01T00:05:26.545Z,98786.00
2022-09-01T00:05:38.505Z,98786.00
2022-09-01T00:05:48.485Z,98784.00
2022-09-01T00:05:56.545Z,98786.00
2022-09-01T00:06:07.483Z,98786.00
2022-09-01T00:06:18.486Z,98788.00
2022-09-01T00:06:26.886Z,98786.00
2022-09-01T00:06:38.476Z,98786.00
2022-09-01T00:06:46.545Z,98784.00
2022-09-01T00:06:58.406Z,98786.00
2022-09-01T00:07:08.487Z,98786.00
2022-09-01T00:07:18.481Z,98786.00
2022-09-01T00:07:27.354Z,98786.00
2022-09-01T00:07:38.495Z,98784.00
2022-09-01T00:07:46.527Z,98783.00
2022-09-01T00:07:58.497Z,98788.00
2022-09-01T00:08:07.286Z,98786.00
2022-09-01T00:08:18.898Z,98784.00
2022-09-01T00:08:28.586Z,98786.00
2022-09-01T00:08:38.587Z,98784.00
2022-09-01T00:08:48.595Z,98786.00
2022-09-01T00:08:56.625Z,98786.00
2022-09-01T00:09:08.609Z,98786.00
2022-09-01T00:09:18.146Z,98784.00
2022-09-01T00:09:26.623Z,98786.00
2022-09-01T00:09:38.587Z,98786.00
2022-09-01T00:09:46.637Z,98783.00
2022-09-01T00:09:58.595Z,98786.00
2022-09-01T00:10:08.566Z,98784.00
2022-09-01T00:10:17.336Z,98784.00
2022-09-01T00:10:26.645Z,98786.00
2022-09-01T00:10:36.661Z,98784.00
2022-09-01T00:10:46.616Z,98786.00
2022-09-01T00:10:57.197Z,98786.00
2022-09-01T00:11:08.556Z,98784.00
2022-09-01T00:11:17.499Z,98788.00
2022-09-01T00:11:26.637Z,98784.00
2022-09-01T00:11:36.656Z,98786.00
2022-09-01T00:11:50.513Z,98784.00
2022-09-01T00:11:57.248Z,98786.00
2022-09-01T00:12:06.607Z,98784.00
2022-09-01T00:12:16.886Z,98788.00
2022-09-01T00:12:26.619Z,98788.00
2022-09-01T00:12:38.567Z,98786.00
2022-09-01T00:12:48.558Z,98786.00
2022-09-01T00:12:56.608Z,98786.00
2022-09-01T00:13:06.767Z,98786.00
2022-09-01T00:13:16.607Z,98788.00
2022-09-01T00:13:28.547Z,98788.00
2022-09-01T00:13:38.580Z,98788.00
2022-09-01T00:13:46.593Z,98788.00
2022-09-01T00:13:58.569Z,98790.00
2022-09-01T00:14:10.687Z,98792.00
2022-09-01T00:14:30.335Z,98788.00
2022-09-01T00:14:31.141Z,98788.00
2022-09-01T00:14:41.563Z,98788.00
2022-09-01T00:14:49.465Z,98786.00
2022-09-01T00:15:00.559Z,98788.00
2022-09-01T00:15:10.539Z,98788.00
2022-09-01T00:15:18.600Z,98788.00
2022-09-01T00:15:28.647Z,98786.00
2022-09-01T00:15:38.687Z,98790.00
2022-09-01T00:15:49.445Z,98788.00
2022-09-01T00:16:00.599Z,98788.00
2022-09-01T00:16:08.617Z,98788.00
2022-09-01T00:16:18.650Z,98790.00
2022-09-01T00:16:28.569Z,98790.00
2022-09-01T00:16:38.594Z,98790.00
2022-09-01T00:16:48.588Z,98786.00
2022-09-01T00:16:58.580Z,98786.00
2022-09-01T00:17:08.588Z,98786.00
2022-09-01T00:17:19.478Z,98786.00
2022-09-01T00:17:30.540Z,98790.00
2022-09-01T00:17:40.544Z,98786.00
2022-09-01T00:17:49.430Z,98788.00
2022-09-01T00:18:00.549Z,98788.00
2022-09-01T00:18:10.509Z,98788.00
2022-09-01T00:18:19.499Z,98790.00
2022-09-01T00:18:28.575Z,98786.00
2022-09-01T00:18:38.570Z,98786.00
2022-09-01T00:18:49.338Z,98788.00
2022-09-01T00:18:58.560Z,98786.00
2022-09-01T00:19:10.519Z,98786.00
2022-09-01T00:19:20.520Z,98788.00
2022-09-01T00:19:28.569Z,98790.00
2022-09-01T00:19:38.579Z,98788.00
2022-09-01T00:19:48.570Z,98788.00
2022-09-01T00:19:58.579Z,98790.00
2022-09-01T00:20:10.509Z,98794.00
2022-09-01T00:20:20.772Z,98790.00
2022-09-01T00:20:30.611Z,98786.00
2022-09-01T00:20:40.611Z,98790.00
2022-09-01T00:20:49.140Z,98790.00
2022-09-01T00:20:58.679Z,98788.00
2022-09-01T00:21:10.660Z,98790.00
2022-09-01T00:21:20.610Z,98788.00
2022-09-01T00:21:30.600Z,98788.00
2022-09-01T00:21:38.662Z,98790.00
2022-09-01T00:21:49.560Z,98790.00
2022-09-01T00:21:58.661Z,98792.00
2022-09-01T00:22:10.633Z,98790.00
2022-09-01T00:22:18.660Z,98788.00
2022-09-01T00:22:30.619Z,98788.00
2022-09-01T00:22:40.593Z,98788.00
2022-09-01T00:22:50.112Z,98788.00
2022-09-01T00:23:00.600Z,98794.00
2022-09-01T00:23:10.590Z,98790.00
2022-09-01T00:23:20.591Z,98792.00
2022-09-01T00:23:28.642Z,98790.00
2022-09-01T00:23:40.621Z,98794.00
2022-09-01T00:23:48.640Z,98792.00
2022-09-01T00:23:58.661Z,98790.00
2022-09-01T00:24:09.591Z,98790.00
2022-09-01T00:24:18.670Z,98792.00
2022-09-01T00:24:30.600Z,98790.00
2022-09-01T00:24:40.580Z,98790.00
2022-09-01T00:24:48.647Z,98792.00
2022-09-01T00:24:58.653Z,98790.00
2022-09-01T00:25:08.642Z,98794.00
2022-09-01T00:25:18.639Z,98794.00
2022-09-01T00:25:30.611Z,98792.00
2022-09-01T00:25:38.686Z,98792.00
2022-09-01T00:25:50.591Z,98792.00
2022-09-01T00:26:00.571Z,98792.00
2022-09-01T00:26:08.619Z,98794.00
2022-09-01T00:26:20.591Z,98792.00
2022-09-01T00:26:28.621Z,98794.00
2022-09-01T00:26:40.618Z,98794.00
2022-09-01T00:26:49.604Z,98792.00
2022-09-01T00:26:58.621Z,98794.00
2022-09-01T00:27:10.573Z,98792.00
2022-09-01T00:27:20.571Z,98792.00
2022-09-01T00:27:32.140Z,98792.00
2022-09-01T00:27:40.171Z,98792.00
2022-09-01T00:27:50.169Z,98792.00
2022-09-01T00:28:02.129Z,98792.00
2022-09-01T00:28:12.204Z,98792.00
2022-09-01T00:28:22.113Z,98788.00
2022-09-01T00:28:31.702Z,98792.00
2022-09-01T00:28:43.662Z,98788.00
2022-09-01T00:28:53.644Z,98790.00
2022-09-01T00:29:03.642Z,98790.00
2022-09-01T00:29:11.711Z,98790.00
2022-09-01T00:29:22.683Z,98792.00
2022-09-01T00:29:32.119Z,98792.00
2022-09-01T00:29:43.856Z,98792.00
2022-09-01T00:29:52.632Z,98794.00
2022-09-01T00:30:03.752Z,98792.00
2022-09-01T00:30:11.793Z,98794.00
2022-09-01T00:30:21.763Z,98792.00
2022-09-01T00:30:33.732Z,98792.00
2022-09-01T00:30:41.840Z,98792.00
2022-09-01T00:30:51.874Z,98796.00
2022-09-01T00:31:01.834Z,98794.00
2022-09-01T00:31:11.876Z,98792.00
2022-09-01T00:31:21.966Z,98794.00
2022-09-01T00:31:33.793Z,98794.00
2022-09-01T00:31:41.756Z,98794.00
2022-09-01T00:31:51.926Z,98794.00
2022-09-01T00:32:03.721Z,98794.00
2022-09-01T00:32:11.784Z,98794.00
2022-09-01T00:32:21.783Z,98796.00
2022-09-01T00:32:33.713Z,98794.00
2022-09-01T00:32:42.341Z,98792.00
2022-09-01T00:32:51.744Z,98792.00
2022-09-01T00:33:03.721Z,98792.00
2022-09-01T00:33:13.698Z,98794.00
2022-09-01T00:33:22.294Z,98796.00
2022-09-01T00:33:31.767Z,98796.00
2022-09-01T00:33:41.775Z,98794.00
2022-09-01T00:33:52.504Z,98794.00
2022-09-01T00:34:03.733Z,98796.00
2022-09-01T00:34:12.414Z,98796.00
2022-09-01T00:34:22.424Z,98794.00
2022-09-01T00:34:31.733Z,98796.00
2022-09-01T00:34:42.444Z,98794.00
2022-09-01T00:34:52.663Z,98796.00
2022-09-01T00:35:01.744Z,98796.00
2022-09-01T00:35:13.713Z,98794.00
2022-09-01T00:35:21.801Z,98796.00
2022-09-01T00:35:36.755Z,98798.00
2022-09-01T00:35:42.062Z,98794.00
2022-09-01T00:35:52.824Z,98794.00
2022-09-01T00:36:04.024Z,98794.00
2022-09-01T00:36:13.986Z,98796.00
2022-09-01T00:36:23.035Z,98796.00
2022-09-01T00:36:33.996Z,98796.00
2022-09-01T00:36:43.996Z,98796.00
2022-09-01T00:36:53.994Z,98796.00
2022-09-01T00:37:02.045Z,98794.00
2022-09-01T00:37:13.995Z,98792.00
2022-09-01T00:37:23.995Z,98794.00
2022-09-01T00:37:32.104Z,98796.00
2022-09-01T00:37:44.005Z,98796.00
2022-09-01T00:37:53.975Z,98796.00
2022-09-01T00:38:02.045Z,98796.00
2022-09-01T00:38:13.997Z,98796.00
2022-09-01T00:38:22.035Z,98796.00
2022-09-01T00:38:33.985Z,98794.00
2022-09-01T00:38:42.025Z,98798.00
2022-09-01T00:38:52.050Z,98798.00
2022-09-01T00:39:02.043Z,98798.00
2022-09-01T00:39:14.005Z,98796.00
2022-09-01T00:39:22.041Z,98798.00
2022-09-01T00:39:33.985Z,98798.00
2022-09-01T00:39:42.015Z,98796.00
2022-09-01T00:39:52.073Z,98798.00
2022-09-01T00:40:02.046Z,98792.00
2022-09-01T00:40:12.069Z,98794.00
2022-09-01T00:40:22.963Z,98794.00
2022-09-01T00:40:34.082Z,98796.00
2022-09-01T00:40:42.625Z,98794.00
2022-09-01T00:40:52.029Z,98794.00
2022-09-01T00:41:02.036Z,98794.00
2022-09-01T00:41:12.026Z,98796.00
2022-09-01T00:41:22.024Z,98792.00
2022-09-01T00:41:32.028Z,98796.00
2022-09-01T00:41:42.045Z,98794.00
2022-09-01T00:41:52.066Z,98796.00
2022-09-01T00:42:03.956Z,98796.00
2022-09-01T00:42:12.587Z,98794.00
2022-09-01T00:42:22.016Z,98796.00
2022-09-01T00:42:32.017Z,98794.00
2022-09-01T00:42:43.955Z,98794.00
2022-09-01T00:42:52.023Z,98792.00
2022-09-01T00:43:02.005Z,98792.00
2022-09-01T00:43:12.016Z,98792.00
2022-09-01T00:43:22.010Z,98792.00
2022-09-01T00:43:32.020Z,98792.00
2022-09-01T00:43:42.026Z,98794.00
2022-09-01T00:43:52.016Z,98794.00
2022-09-01T00:44:02.014Z,98792.00
2022-09-01T00:44:13.927Z,98792.00
2022-09-01T00:44:23.966Z,98794.00
2022-09-01T00:44:33.940Z,98796.00
2022-09-01T00:44:43.931Z,98792.00
2022-09-01T00:44:51.999Z,98794.00
2022-09-01T00:45:03.937Z,98792.00
2022-09-01T00:45:13.437Z,98792.00
2022-09-01T00:45:23.054Z,98792.00
2022-09-01T00:45:32.017Z,98792.00
2022-09-01T00:45:42.021Z,98794.00
2022-09-01T00:45:53.984Z,98792.00
2022-09-01T00:46:02.029Z,98798.00
2022-09-01T00:46:13.987Z,98792.00
2022-09-01T00:46:23.718Z,98798.00
2022-09-01T00:46:36.952Z,98796.00
2022-09-01T00:46:47.711Z,98794.00
2022-09-01T00:46:55.950Z,98794.00
2022-09-01T00:47:04.687Z,98794.00
2022-09-01T00:47:14.717Z,98794.00
2022-09-01T00:47:25.007Z,98794.00
2022-09-01T00:47:36.637Z,98794.00
2022-09-01T00:47:46.629Z,98796.00
2022-09-01T00:47:54.745Z,98796.00
2022-09-01T00:48:05.497Z,98794.00
2022-09-01T00:48:16.703Z,98796.00
2022-09-01T00:48:24.698Z,98796.00
2022-09-01T00:48:36.678Z,98794.00
2022-09-01T00:48:46.647Z,98794.00
2022-09-01T00:48:54.868Z,98796.00
2022-09-01T00:49:06.810Z,98796.00
2022-09-01T00:49:16.496Z,98794.00
2022-09-01T00:49:26.950Z,98794.00
2022-09-01T00:49:36.950Z,98794.00
2022-09-01T00:49:45.026Z,98796.00
2022-09-01T00:49:56.958Z,98792.00
2022-09-01T00:50:06.959Z,98794.00
2022-09-01T00:50:16.448Z,98794.00
2022-09-01T00:50:24.989Z,98796.00
2022-09-01T00:50:35.009Z,98794.00
2022-09-01T00:50:47.194Z,98796.00
2022-09-01T00:50:56.968Z,98792.00
2022-09-01T00:51:06.939Z,98796.00
2022-09-01T00:51:15.959Z,98792.00
2022-09-01T00:51:24.999Z,98794.00
2022-09-01T00:51:35.018Z,98792.00
2022-09-01T00:51:45.910Z,98792.00
2022-09-01T00:51:56.972Z,98794.00
2022-09-01T00:52:06.948Z,98794.00
2022-09-01T00:52:16.938Z,98792.00
2022-09-01T00:52:24.982Z,98790.00
2022-09-01T00:52:34.999Z,98792.00
2022-09-01T00:52:44.989Z,98792.00
2022-09-01T00:52:55.018Z,98792.00
2022-09-01T00:53:06.939Z,98792.00
2022-09-01T00:53:15.512Z,98792.00
2022-09-01T00:53:24.987Z,98794.00
2022-09-01T00:53:34.999Z,98792.00
2022-09-01T00:53:44.998Z,98794.00
2022-09-01T00:53:55.361Z,98792.00
2022-09-01T00:54:06.909Z,98794.00
2022-09-01T00:54:16.953Z,98792.00
2022-09-01T00:54:24.959Z,98792.00
2022-09-01T00:54:36.941Z,98790.00
2022-09-01T00:54:46.920Z,98792.00
2022-09-01T00:54:54.968Z,98792.00
2022-09-01T00:55:06.948Z,98792.00
2022-09-01T00:55:16.910Z,98790.00
2022-09-01T00:55:24.951Z,98792.00
2022-09-01T00:55:36.930Z,98790.00
2022-09-01T00:55:46.409Z,98790.00
2022-09-01T00:55:56.914Z,98790.00
2022-09-01T00:56:04.969Z,98790.00
2022-09-01T00:56:14.970Z,98788.00
2022-09-01T00:56:24.972Z,98792.00
2022-09-01T00:56:34.978Z,98790.00
2022-09-01T00:56:46.503Z,98792.00
2022-09-01T00:56:57.807Z,98790.00
2022-09-01T00:57:04.950Z,98790.00
2022-09-01T00:57:14.961Z,98790.00
2022-09-01T00:57:24.960Z,98790.00
2022-09-01T00:57:34.971Z,98788.00
2022-09-01T00:57:44.960Z,98790.00
2022-09-01T00:57:56.900Z,98788.00
2022-09-01T00:58:06.892Z,98792.00
2022-09-01T00:58:19.514Z,98790.00
2022-09-01T00:58:26.569Z,98792.00
2022-09-01T00:58:38.440Z,98788.00
2022-09-01T00:58:46.594Z,98790.00
2022-09-01T00:58:56.591Z,98792.00
2022-09-01T00:59:06.480Z,98790.00
2022-09-01T00:59:16.611Z,98790.00
2022-09-01T00:59:26.477Z,98792.00
2022-09-01T00:59:38.436Z,98792.00
2022-09-01T00:59:48.420Z,98792.00
2022-09-01T00:59:56.474Z,98792.00
2022-09-01T01:00:08.430Z,98792.00
2022-09-01T01:00:16.479Z,98792.00
2022-09-01T01:00:28.424Z,98790.00
2022-09-01T01:00:38.411Z,98790.00
2022-09-01T01:00:46.469Z,98790.00
2022-09-01T01:00:56.474Z,98794.00
2022-09-01T01:01:06.517Z,98794.00
2022-09-01T01:01:16.555Z,98792.00
2022-09-01T01:01:26.524Z,98792.00
2022-09-01T01:01:38.486Z,98794.00
2022-09-01T01:01:46.513Z,98794.00
2022-09-01T01:01:56.573Z,98792.00
2022-09-01T01:02:08.432Z,98794.00
2022-09-01T01:02:16.505Z,98790.00
2022-09-01T01:02:28.446Z,98792.00
2022-09-01T01:02:38.458Z,98790.00
2022-09-01T01:02:46.517Z,98792.00
2022-09-01T01:02:58.443Z,98790.00
2022-09-01T01:03:06.463Z,98794.00
2022-09-01T01:03:18.424Z,98792.00
2022-09-01T01:03:28.382Z,98790.00
2022-09-01T01:03:38.393Z,98794.00
2022-09-01T01:03:48.387Z,98792.00
2022-09-01T01:03:58.399Z,98792.00
2022-09-01T01:04:08.393Z,98790.00
2022-09-01T01:04:18.423Z,98788.00
2022-09-01T01:04:26.436Z,98790.00
2022-09-01T01:04:36.451Z,98788.00
2022-09-01T01:04:48.394Z,98790.00
2022-09-01T01:04:58.392Z,98788.00
2022-09-01T01:05:08.373Z,98788.00
2022-09-01T01:05:17.301Z,98788.00
2022-09-01T01:05:27.524Z,98790.00
2022-09-01T01:05:38.170Z,98790.00
2022-09-01T01:05:47.321Z,98792.00
2022-09-01T01:05:59.267Z,98788.00
2022-09-01T01:06:07.944Z,98790.00
2022-09-01T01:06:17.953Z,98790.00
2022-09-01T01:06:27.613Z,98790.00
2022-09-01T01:06:37.964Z,98788.00
2022-09-01T01:06:47.963Z,98788.00
2022-09-01T01:06:57.982Z,98790.00
2022-09-01T01:07:07.982Z,98786.00
2022-09-01T01:07:17.993Z,98790.00
2022-09-01T01:07:27.713Z,98790.00
2022-09-01T01:07:38.014Z,98790.00
2022-09-01T01:07:48.109Z,98788.00
2022-09-01T01:07:58.028Z,98788.00
2022-09-01T01:08:08.034Z,98788.00
2022-09-01T01:08:18.145Z,98788.00
2022-09-01T01:08:27.785Z,98788.00
2022-09-01T01:08:38.073Z,98786.00
2022-09-01T01:08:48.077Z,98790.00
2022-09-01T01:08:58.078Z,98788.00
2022-09-01T01:09:08.083Z,98788.00
2022-09-01T01:09:18.091Z,98788.00
2022-09-01T01:09:27.902Z,98786.00
2022-09-01T01:09:37.288Z,98788.00
2022-09-01T01:09:48.112Z,98788.00
2022-09-01T01:09:58.134Z,98788.00
2022-09-01T01:10:08.124Z,98786.00
2022-09-01T01:10:17.264Z,98786.00
2022-09-01T01:10:27.923Z,98786.00
2022-09-01T01:10:38.160Z,98786.00
2022-09-01T01:10:47.265Z,98786.00
2022-09-01T01:10:57.273Z,98786.00
2022-09-01T01:11:08.735Z,98788.00
2022-09-01T01:11:17.328Z,98788.00
2022-09-01T01:11:28.122Z,98786.00
2022-09-01T01:11:39.218Z,98788.00
2022-09-01T01:11:47.257Z,98788.00
2022-09-01T01:11:57.284Z,98786.00
2022-09-01T01:12:07.267Z,98788.00
2022-09-01T01:12:19.218Z,98788.00
2022-09-01T01:12:29.196Z,98790.00
2022-09-01T01:12:39.232Z,98788.00
2022-09-01T01:12:49.196Z,98786.00
2022-09-01T01:12:59.205Z,98786.00
2022-09-01T01:13:08.214Z,98788.00
2022-09-01T01:13:17.260Z,98786.00
2022-09-01T01:13:29.232Z,98786.00
2022-09-01T01:13:39.208Z,98786.00
2022-09-01T01:13:49.195Z,98788.00
2022-09-01T01:13:57.234Z,98788.00
2022-09-01T01:14:07.265Z,98788.00
2022-09-01T01:14:17.268Z,98788.00
2022-09-01T01:14:27.245Z,98786.00
2022-09-01T01:14:39.217Z,98788.00
2022-09-01T01:14:47.297Z,98786.00
2022-09-01T01:14:57.235Z,98786.00
2022-09-01T01:15:09.215Z,98788.00
2022-09-01T01:15:19.182Z,98786.00
2022-09-01T01:15:27.228Z,98786.00
2022-09-01T01:15:37.277Z,98786.00
2022-09-01T01:15:47.212Z,98788.00
2022-09-01T01:15:59.217Z,98788.00
2022-09-01T01:16:07.226Z,98786.00
2022-09-01T01:16:17.284Z,98788.00
2022-09-01T01:16:27.288Z,98788.00
2022-09-01T01:16:39.293Z,98786.00
2022-09-01T01:16:48.177Z,98788.00
2022-09-01T01:16:57.285Z,98786.00
2022-09-01T01:17:07.305Z,98788.00
2022-09-01T01:17:17.237Z,98788.00
2022-09-01T01:17:27.224Z,98786.00
2022-09-01T01:17:39.176Z,98788.00
2022-09-01T01:17:49.156Z,98784.00
2022-09-01T01:17:59.158Z,98786.00
2022-09-01T01:18:07.206Z,98790.00
2022-09-01T01:18:23.553Z,98790.00
2022-09-01T01:18:29.527Z,98786.00
2022-09-01T01:18:37.588Z,98788.00
2022-09-01T01:18:47.585Z,98788.00
2022-09-01T01:18:57.576Z,98788.00
2022-09-01T01:19:07.566Z,98788.00
2022-09-01T01:19:17.617Z,98790.00
2022-09-01T01:19:27.575Z,98792.00
2022-09-01T01:19:39.141Z,98788.00
2022-09-01T01:19:48.346Z,98790.00
2022-09-01T01:19:59.516Z,98788.00
2022-09-01T01:20:07.557Z,98786.00
2022-09-01T01:20:18.549Z,98784.00
2022-09-01T01:20:27.546Z,98786.00
2022-09-01T01:20:39.508Z,98786.00
2022-09-01T01:20:48.505Z,98784.00
2022-09-01T01:20:59.527Z,98786.00
2022-09-01T01:21:09.507Z,98786.00
2022-09-01T01:21:17.664Z,98786.00
2022-09-01T01:21:27.668Z,98786.00
2022-09-01T01:21:37.528Z,98788.00
2022-09-01T01:21:47.536Z,98784.00
2022-09-01T01:21:57.556Z,98786.00
2022-09-01T01:22:07.577Z,98786.00
2022-09-01T01:22:17.707Z,98788.00
2022-09-01T01:22:29.478Z,98784.00
2022-09-01T01:22:39.497Z,98788.00
2022-09-01T01:22:47.544Z,98786.00
2022-09-01T01:22:59.537Z,98788.00
2022-09-01T01:23:09.477Z,98788.00
2022-09-01T01:23:18.523Z,98784.00
2022-09-01T01:23:29.497Z,98783.00
2022-09-01T01:23:39.491Z,98784.00
2022-09-01T01:23:47.527Z,98784.00
2022-09-01T01:23:57.545Z,98786.00
2022-09-01T01:24:09.497Z,98784.00
2022-09-01T01:24:17.537Z,98784.00
2022-09-01T01:24:29.479Z,98786.00
2022-09-01T01:24:37.547Z,98784.00
2022-09-01T01:24:47.539Z,98784.00
2022-09-01T01:24:57.528Z,98784.00
2022-09-01T01:25:07.527Z,98784.00
2022-09-01T01:25:17.546Z,98786.00
2022-09-01T01:25:29.480Z,98784.00
2022-09-01T01:25:38.988Z,98786.00
2022-09-01T01:25:47.519Z,98786.00
2022-09-01T01:25:57.516Z,98786.00
2022-09-01T01:26:09.478Z,98786.00
2022-09-01T01:26:19.470Z,98784.00
2022-09-01T01:26:28.506Z,98784.00
2022-09-01T01:26:38.011Z,98786.00
2022-09-01T01:26:49.449Z,98784.00
2022-09-01T01:26:59.449Z,98788.00
2022-09-01T01:27:07.498Z,98788.00
2022-09-01T01:27:19.469Z,98786.00
2022-09-01T01:27:27.567Z,98784.00
2022-09-01T01:27:42.961Z,98786.00
2022-09-01T01:27:48.991Z,98784.00
2022-09-01T01:27:59.439Z,98786.00
2022-09-01T01:28:09.449Z,98784.00
2022-09-01T01:28:17.587Z,98790.00
2022-09-01T01:28:29.468Z,98786.00
2022-09-01T01:28:39.456Z,98783.00
2022-09-01T01:28:49.441Z,98788.00
2022-09-01T01:28:59.431Z,98786.00
2022-09-01T01:29:07.488Z,98784.00
2022-09-01T01:29:17.511Z,98786.00
2022-09-01T01:29:29.452Z,98788.00
2022-09-01T01:29:38.949Z,98783.00
2022-09-01T01:29:47.489Z,98790.00
2022-09-01T01:29:59.431Z,98790.00
2022-09-01T01:30:09.337Z,98786.00
2022-09-01T01:30:17.520Z,98788.00
2022-09-01T01:30:29.509Z,98786.00
2022-09-01T01:30:39.495Z,98788.00
2022-09-01T01:30:47.593Z,98788.00
2022-09-01T01:30:59.490Z,98790.00
2022-09-01T01:31:07.515Z,98788.00
2022-09-01T01:31:55.174Z,98790.00
2022-09-01T01:32:06.742Z,98786.00
2022-09-01T01:32:15.191Z,98784.00
2022-09-01T01:32:25.211Z,98786.00
2022-09-01T01:32:36.751Z,98786.00
2022-09-01T01:32:45.212Z,98786.00
2022-09-01T01:32:55.223Z,98786.00
2022-09-01T01:33:05.782Z,98786.00
2022-09-01T01:33:15.230Z,98786.00
2022-09-01T01:33:25.251Z,98786.00
2022-09-01T01:33:36.731Z,98786.00
2022-09-01T01:33:46.732Z,98784.00
2022-09-01T01:33:54.786Z,98784.00
2022-09-01T01:34:04.803Z,98783.00
2022-09-01T01:34:14.783Z,98784.00
2022-09-01T01:34:24.794Z,98786.00
2022-09-01T01:34:34.801Z,98784.00
2022-09-01T01:34:46.876Z,98783.00
2022-09-01T01:34:54.801Z,98784.00
2022-09-01T01:35:06.746Z,98786.00
2022-09-01T01:35:16.221Z,98784.00
2022-09-01T01:35:24.780Z,98786.00
2022-09-01T01:35:34.794Z,98784.00
2022-09-01T01:35:44.783Z,98784.00
2022-09-01T01:35:54.783Z,98784.00
2022-09-01T01:36:04.816Z,98784.00
2022-09-01T01:36:14.782Z,98786.00
2022-09-01T01:36:26.733Z,98786.00
2022-09-01T01:36:35.703Z,98784.00
2022-09-01T01:36:44.776Z,98786.00
2022-09-01T01:36:56.737Z,98784.00
2022-09-01T01:37:06.712Z,98786.00
2022-09-01T01:37:14.774Z,98786.00
2022-09-01T01:37:24.783Z,98784.00
2022-09-01T01:37:34.765Z,98786.00
2022-09-01T01:37:44.772Z,98786.00
2022-09-01T01:37:54.775Z,98786.00
2022-09-01T01:38:06.703Z,98786.00
2022-09-01T01:38:14.771Z,98786.00
2022-09-01T01:38:24.763Z,98784.00
2022-09-01T01:38:36.744Z,98784.00
2022-09-01T01:38:44.945Z,98784.00
2022-09-01T01:38:56.683Z,98786.00
2022-09-01T01:39:04.744Z,98781.00
2022-09-01T01:39:14.782Z,98781.00
2022-09-01T01:39:26.693Z,98783.00
2022-09-01T01:39:34.755Z,98783.00
2022-09-01T01:39:45.004Z,98781.00
2022-09-01T01:39:56.684Z,98784.00
2022-09-01T01:40:06.731Z,98783.00
2022-09-01T01:40:14.785Z,98784.00
2022-09-01T01:40:24.768Z,98781.00
2022-09-01T01:40:34.849Z,98783.00
2022-09-01T01:40:44.799Z,98783.00
2022-09-01T01:40:56.713Z,98783.00
2022-09-01T01:41:04.725Z,98784.00
2022-09-01T01:41:14.954Z,98781.00
2022-09-01T01:41:26.685Z,98784.00
2022-09-01T01:41:34.764Z,98783.00
2022-09-01T01:41:46.675Z,98783.00
2022-09-01T01:41:54.757Z,98786.00
2022-09-01T01:42:06.686Z,98784.00
2022-09-01T01:42:16.674Z,98784.00
2022-09-01T01:42:24.724Z,98784.00
2022-09-01T01:42:36.696Z,98784.00
2022-09-01T01:42:44.716Z,98784.00
2022-09-01T01:42:54.746Z,98784.00
2022-09-01T01:43:06.674Z,98786.00
2022-09-01T01:43:16.665Z,98786.00
2022-09-01T01:43:24.713Z,98786.00
2022-09-01T01:43:36.696Z,98786.00
2022-09-01T01:43:44.715Z,98783.00
2022-09-01T01:43:54.724Z,98784.00
2022-09-01T01:44:06.674Z,98784.00
2022-09-01T01:44:16.646Z,98786.00
2022-09-01T01:44:24.954Z,98784.00
2022-09-01T01:44:36.664Z,98784.00
2022-09-01T01:44:44.725Z,98786.00
2022-09-01T01:44:54.757Z,98784.00
2022-09-01T01:45:06.686Z,98788.00
2022-09-01T01:45:16.646Z,98786.00
2022-09-01T01:45:26.644Z,98788.00
2022-09-01T01:45:36.691Z,98784.00
2022-09-01T01:45:46.747Z,98788.00
2022-09-01T01:45:56.699Z,98788.00
2022-09-01T01:46:06.748Z,98786.00
2022-09-01T01:46:16.718Z,98786.00
2022-09-01T01:46:26.684Z,98786.00
2022-09-01T01:46:34.701Z,98786.00
2022-09-01T01:46:46.646Z,98788.00
2022-09-01T01:46:56.646Z,98786.00
2022-09-01T01:47:06.147Z,98786.00
2022-09-01T01:47:16.626Z,98786.00
2022-09-01T01:47:26.627Z,98786.00
2022-09-01T01:47:36.625Z,98784.00
2022-09-01T01:47:44.670Z,98786.00
2022-09-01T01:47:54.705Z,98788.00
2022-09-01T01:48:06.635Z,98784.00
2022-09-01T01:48:16.666Z,98788.00
2022-09-01T01:48:26.626Z,98786.00
2022-09-01T01:48:36.636Z,98786.00
2022-09-01T01:48:46.626Z,98788.00
2022-09-01T01:48:56.133Z,98784.00
2022-09-01T01:49:06.627Z,98786.00
2022-09-01T01:49:14.678Z,98788.00
2022-09-01T01:49:26.626Z,98788.00
2022-09-01T01:49:36.136Z,98788.00
2022-09-01T01:49:44.685Z,98788.00
2022-09-01T01:49:54.687Z,98788.00
2022-09-01T01:50:06.634Z,98790.00
2022-09-01T01:50:16.626Z,98788.00
2022-09-01T01:50:26.613Z,98790.00
2022-09-01T01:50:36.607Z,98784.00
2022-09-01T01:50:44.664Z,98790.00
2022-09-01T01:50:56.628Z,98788.00
2022-09-01T01:51:06.597Z,98792.00
2022-09-01T01:51:14.740Z,98788.00
2022-09-01T01:51:24.748Z,98786.00
2022-09-01T01:51:36.597Z,98786.00
2022-09-01T01:51:44.656Z,98788.00
2022-09-01T01:51:56.627Z,98784.00
2022-09-01T01:52:08.202Z,98786.00
2022-09-01T01:52:16.097Z,98788.00
2022-09-01T01:52:26.936Z,98786.00
2022-09-01T01:52:34.698Z,98784.00
2022-09-01T01:52:45.360Z,98784.00
2022-09-01T01:52:58.258Z,98788.00
2022-09-01T01:53:11.489Z,98788.00
2022-09-01T01:53:14.697Z,98788.00
2022-09-01T01:53:24.666Z,98788.00
2022-09-01T01:53:36.626Z,98788.00
2022-09-01T01:53:46.618Z,98788.00
2022-09-01T01:53:54.648Z,98788.00
2022-09-01T01:54:04.668Z,98788.00
2022-09-01T01:54:14.676Z,98788.00
2022-09-01T01:54:24.673Z,98786.00
2022-09-01T01:54:36.610Z,98786.00
2022-09-01T01:54:44.668Z,98786.00
2022-09-01T01:54:56.609Z,98786.00
2022-09-01T01:55:05.410Z,98786.00
2022-09-01T01:55:16.618Z,98786.00
2022-09-01T01:55:26.594Z,98784.00
2022-09-01T01:55:34.650Z,98786.00
2022-09-01T01:55:46.597Z,98786.00
2022-09-01T01:55:55.058Z,98786.00
2022-09-01T01:56:04.640Z,98784.00
2022-09-01T01:56:15.336Z,98783.00
2022-09-01T01:56:26.581Z,98786.00
2022-09-01T01:56:34.648Z,98786.00
2022-09-01T01:56:46.598Z,98784.00
2022-09-01T01:56:56.578Z,98784.00
2022-09-01T01:57:06.580Z,98784.00
2022-09-01T01:57:14.649Z,98784.00
2022-09-01T01:57:24.726Z,98788.00
2022-09-01T01:57:36.578Z,98784.00
2022-09-01T01:57:46.580Z,98786.00
2022-09-01T01:57:55.411Z,98786.00
2022-09-01T01:58:06.568Z,98784.00